Time;durP1;ratioP1;P1;durP2;ratioP2;P2;SDS_P1;SDS_P2;PMS_P1;PMS_P2;Temp;Humidity;BMP_temperature;BMP_pressure;BME280_temperature;BME280_humidity;BME280_pressure;Samples;Min_cycle;Max_cycle;Signal;HPM_P1;HPM_P2
2023/08/29 03:13:53;;;;;;;8.75;2.65;;;;;;;15.19;57.93;99172.97;5008096;28;20056;-40
2023/08/29 03:16:19;;;;;;;5.60;2.42;;;;;;;15.23;58.01;99178.84;5013054;28;20037;-41
2023/08/29 03:18:45;;;;;;;7.35;2.72;;;;;;;14.97;57.95;99132.50;5013345;28;20045;-41
2023/08/29 03:21:11;;;;;;;5.60;2.03;;;;;;;15.06;57.83;99153.72;5044274;28;20069;-41
2023/08/29 03:23:37;;;;;;;4.28;2.05;;;;;;;15.30;57.82;99189.81;5014831;28;20459;-41
2023/08/29 03:26:08;;;;;;;5.38;2.28;;;;;;;15.18;57.83;99155.56;5015369;28;20523;-41
2023/08/29 03:28:35;;;;;;;4.38;2.40;;;;;;;15.30;57.84;99181.94;5039202;28;20046;-41
2023/08/29 03:31:08;;;;;;;6.30;2.50;;;;;;;15.17;58.11;99179.25;5013738;28;20056;-40
2023/08/29 03:33:35;;;;;;;5.00;2.47;;;;;;;15.12;58.46;99182.16;5016445;28;20183;-40
2023/08/29 03:36:01;;;;;;;6.75;2.38;;;;;;;14.95;58.40;99158.78;5021525;28;20033;-42
2023/08/29 03:38:27;;;;;;;8.68;2.50;;;;;;;15.09;58.71;99190.19;5018901;28;20124;-41
2023/08/29 03:40:57;;;;;;;7.47;2.63;;;;;;;15.09;58.57;99176.25;5034323;28;20156;-42
2023/08/29 03:43:25;;;;;;;8.98;2.80;;;;;;;14.89;58.51;99129.50;5018192;28;20482;-40
2023/08/29 03:45:58;;;;;;;6.60;2.33;;;;;;;15.19;58.57;99175.59;5020962;28;20037;-41
2023/08/29 03:48:24;;;;;;;8.68;2.75;;;;;;;15.24;58.70;99178.78;5016708;28;20051;-48
2023/08/29 03:50:51;;;;;;;5.75;2.40;;;;;;;15.26;58.63;99178.69;5021150;28;20520;-39
2023/08/29 03:53:17;;;;;;;4.13;2.38;;;;;;;15.37;58.49;99178.03;5002578;28;22178;-48
2023/08/29 03:55:42;;;;;;;11.02;2.80;;;;;;;15.38;58.31;99179.72;5001282;28;20045;-41
2023/08/29 03:58:08;;;;;;;6.20;2.72;;;;;;;15.37;58.47;99173.63;4986688;28;20037;-61
2023/08/29 04:00:35;;;;;;;6.35;2.88;;;;;;;15.42;58.49;99163.72;5022687;28;20099;-40
2023/08/29 04:03:05;;;;;;;4.97;2.65;;;;;;;15.49;58.22;99178.09;5018179;28;20045;-41
2023/08/29 04:05:31;;;;;;;7.05;2.72;;;;;;;15.56;58.07;99163.72;5046108;28;20038;-42
2023/08/29 04:07:57;;;;;;;8.27;2.63;;;;;;;15.42;58.31;99132.28;5009446;28;20434;-42
2023/08/29 04:10:22;;;;;;;7.18;2.63;;;;;;;15.70;58.20;99170.72;5010705;28;20050;-40
2023/08/29 04:12:48;;;;;;;6.47;2.47;;;;;;;15.71;58.14;99169.75;5017638;28;20052;-40
2023/08/29 04:15:14;;;;;;;7.95;2.70;;;;;;;15.80;57.70;99165.72;5017979;28;20053;-41
2023/08/29 04:17:40;;;;;;;10.98;2.90;;;;;;;15.71;57.65;99176.78;5022057;28;20561;-42
2023/08/29 04:20:08;;;;;;;10.00;2.90;;;;;;;15.52;58.01;99145.66;5016205;28;20112;-40
2023/08/29 04:22:35;;;;;;;6.03;2.95;;;;;;;15.70;57.84;99169.88;5029033;28;20045;-40
2023/08/29 04:25:04;;;;;;;6.25;2.72;;;;;;;15.74;57.77;99160.88;5027383;28;20049;-41
2023/08/29 04:27:31;;;;;;;9.02;3.03;;;;;;;15.72;57.87;99153.09;5024294;28;20034;-40
2023/08/29 04:29:57;;;;;;;9.77;3.10;;;;;;;15.86;57.79;99160.91;5007155;28;20060;-41
2023/08/29 04:32:24;;;;;;;6.78;2.83;;;;;;;15.94;57.36;99168.28;5026792;28;20037;-40
2023/08/29 04:34:50;;;;;;;6.45;3.17;;;;;;;15.90;57.19;99154.56;5026213;28;20038;-41
2023/08/29 04:37:16;;;;;;;8.05;3.10;;;;;;;15.99;57.27;99156.56;5028320;28;20059;-42
2023/08/29 04:39:44;;;;;;;5.53;2.60;;;;;;;16.01;57.49;99172.22;5033943;28;20049;-41
2023/08/29 04:42:10;;;;;;;5.72;2.90;;;;;;;16.02;57.64;99184.34;5026252;28;20048;-41
2023/08/29 04:44:36;;;;;;;6.72;3.35;;;;;;;16.08;57.26;99186.59;5026343;28;20045;-40
2023/08/29 04:47:03;;;;;;;8.02;3.17;;;;;;;16.24;57.42;99191.69;5027130;28;20582;-41
2023/08/29 04:49:29;;;;;;;10.38;3.42;;;;;;;16.22;57.14;99197.06;5026259;28;20049;-39
2023/08/29 04:51:56;;;;;;;9.32;3.17;;;;;;;16.18;57.14;99199.94;5026202;28;20044;-41
2023/08/29 04:54:22;;;;;;;9.43;3.13;;;;;;;16.13;57.41;99205.50;5026178;28;20574;-40
2023/08/29 04:56:48;;;;;;;8.85;2.72;;;;;;;16.14;57.10;99204.56;5026342;28;20051;-41
2023/08/29 04:59:14;;;;;;;12.65;3.38;;;;;;;16.01;56.99;99153.84;5025969;28;20060;-40
2023/08/29 05:01:40;;;;;;;9.20;3.00;;;;;;;16.29;56.95;99195.69;5009925;28;20049;-41
2023/08/29 05:04:08;;;;;;;5.43;3.00;;;;;;;16.39;56.79;99188.06;5024583;28;20091;-40
2023/08/29 05:06:35;;;;;;;6.82;2.78;;;;;;;16.52;56.56;99191.56;5026137;28;20045;-41
2023/08/29 05:09:01;;;;;;;11.32;3.33;;;;;;;16.53;56.36;99190.63;5026153;28;20348;-40
2023/08/29 05:11:27;;;;;;;7.05;3.13;;;;;;;16.53;56.51;99186.22;4976962;28;20053;-41
2023/08/29 05:13:54;;;;;;;7.32;3.05;;;;;;;16.43;56.26;99165.94;5025858;28;20053;-41
2023/08/29 05:16:20;;;;;;;8.38;3.42;;;;;;;16.59;56.39;99184.97;5025982;28;20042;-40
2023/08/29 05:18:47;;;;;;;9.00;3.30;;;;;;;16.73;56.35;99184.06;5028955;28;20542;-42
2023/08/29 05:21:13;;;;;;;13.10;3.17;;;;;;;16.51;56.00;99146.09;5028278;28;20045;-39
2023/08/29 05:23:39;;;;;;;10.93;3.42;;;;;;;16.77;55.87;99168.00;4995572;28;20044;-40
2023/08/29 05:26:05;;;;;;;22.90;5.28;;;;;;;17.00;55.75;99186.59;5025085;28;20135;-40
2023/08/29 05:28:31;;;;;;;6.63;3.13;;;;;;;17.02;55.73;99176.81;5024872;28;20080;-41
2023/08/29 05:30:56;;;;;;;9.30;3.50;;;;;;;17.00;55.65;99178.72;5030462;28;20045;-42
2023/08/29 05:33:22;;;;;;;9.18;3.08;;;;;;;17.04;55.63;99175.78;5028147;28;20572;-42
2023/08/29 05:35:48;;;;;;;12.32;3.85;;;;;;;17.14;55.49;99170.72;5030810;28;20100;-41
2023/08/29 05:38:14;;;;;;;9.82;3.38;;;;;;;17.28;55.35;99166.19;5012383;28;20036;-41
2023/08/29 05:40:40;;;;;;;7.00;2.95;;;;;;;17.13;54.86;99119.13;5034859;28;20048;-42
2023/08/29 05:43:06;;;;;;;7.72;3.75;;;;;;;17.30;54.95;99150.31;5024900;28;20107;-42
2023/08/29 05:45:32;;;;;;;10.50;3.78;;;;;;;17.47;54.81;99180.69;5027152;28;20553;-41
2023/08/29 05:47:58;;;;;;;8.95;3.70;;;;;;;17.55;54.67;99173.06;5026242;28;20433;-41
2023/08/29 05:50:24;;;;;;;7.65;3.53;;;;;;;17.35;54.40;99156.94;5026196;28;20049;-41
2023/08/29 05:52:50;;;;;;;5.75;3.35;;;;;;;17.38;54.54;99176.88;5028097;28;20139;-41
2023/08/29 05:55:17;;;;;;;8.70;3.58;;;;;;;17.18;54.73;99141.50;5027516;28;20713;-41
2023/08/29 05:57:43;;;;;;;6.03;3.60;;;;;;;17.30;54.55;99166.09;5023832;28;20033;-41
2023/08/29 06:00:10;;;;;;;8.65;3.38;;;;;;;17.25;54.49;99166.41;5027273;28;20417;-42
2023/08/29 06:02:45;;;;;;;7.90;3.13;;;;;;;17.21;54.57;99166.75;5022838;28;20055;-41
2023/08/29 06:05:11;;;;;;;13.27;3.63;;;;;;;17.04;55.05;99146.88;5029763;28;20045;-42
2023/08/29 06:07:38;;;;;;;11.27;3.50;;;;;;;17.11;55.24;99171.78;5027488;28;20099;-42
2023/08/29 06:10:07;;;;;;;9.70;3.47;;;;;;;17.15;55.12;99175.03;5029904;28;20041;-41
2023/08/29 06:12:33;;;;;;;7.47;3.47;;;;;;;17.01;55.40;99159.41;5021012;28;20037;-40
2023/08/29 06:14:59;;;;;;;5.78;3.67;;;;;;;17.16;55.52;99185.47;5029646;28;20071;-40
2023/08/29 06:17:25;;;;;;;9.32;3.83;;;;;;;17.02;55.38;99185.53;5029625;28;20411;-41
2023/08/29 06:19:51;;;;;;;10.63;3.63;;;;;;;16.90;55.87;99183.78;5028432;28;20049;-42
2023/08/29 06:22:17;;;;;;;8.20;3.50;;;;;;;16.86;56.04;99190.16;5029359;28;20127;-42
2023/08/29 06:24:43;;;;;;;8.30;3.20;;;;;;;16.70;56.01;99169.34;5029699;28;20049;-40
2023/08/29 06:27:09;;;;;;;10.55;3.63;;;;;;;16.86;55.67;99203.28;5029516;28;20053;-40
2023/08/29 06:29:35;;;;;;;7.95;3.58;;;;;;;16.91;55.95;99204.66;5027929;28;20152;-41
2023/08/29 06:32:01;;;;;;;9.80;3.30;;;;;;;16.76;55.80;99173.34;5016687;28;20045;-40
2023/08/29 06:34:26;;;;;;;10.23;3.67;;;;;;;16.93;56.01;99197.53;5016475;28;20306;-41
2023/08/29 06:36:52;;;;;;;13.02;3.60;;;;;;;17.05;55.68;99201.09;5027906;28;20029;-41
2023/08/29 06:39:18;;;;;;;10.70;3.47;;;;;;;17.16;55.40;99203.00;5026910;28;20072;-41
2023/08/29 06:41:45;;;;;;;9.60;3.80;;;;;;;17.14;55.36;99200.47;5028770;28;20045;-40
2023/08/29 06:44:12;;;;;;;8.07;3.38;;;;;;;17.10;55.30;99200.78;5027727;28;20048;-41
2023/08/29 06:46:38;;;;;;;12.25;3.63;;;;;;;16.85;55.54;99164.88;5026937;28;20037;-42
2023/08/29 06:49:05;;;;;;;6.45;3.53;;;;;;;17.02;55.80;99203.94;4996071;28;20722;-42
2023/08/29 06:51:32;;;;;;;8.85;3.53;;;;;;;17.01;56.13;99215.38;5032122;28;20049;-44
2023/08/29 06:53:58;;;;;;;10.38;3.70;;;;;;;17.06;56.18;99209.84;5019506;28;20060;-43
2023/08/29 06:56:24;;;;;;;8.30;3.10;;;;;;;17.07;55.83;99204.44;5025715;28;20037;-41
2023/08/29 06:58:49;;;;;;;12.48;3.47;;;;;;;17.08;56.39;99216.66;5029121;28;20040;-41
2023/08/29 07:01:16;;;;;;;9.63;3.22;;;;;;;17.13;56.21;99211.06;5004575;28;20183;-42
2023/08/29 07:03:41;;;;;;;10.82;4.13;;;;;;;17.16;56.05;99209.09;5029123;28;20073;-41
2023/08/29 07:06:07;;;;;;;9.32;4.00;;;;;;;17.15;56.46;99211.81;5028497;28;20065;-42
2023/08/29 07:08:33;;;;;;;11.20;3.65;;;;;;;17.04;56.26;99167.06;5019875;28;20049;-42
2023/08/29 07:10:59;;;;;;;14.65;4.57;;;;;;;17.31;55.89;99181.75;5028579;28;20051;-43
2023/08/29 07:13:25;;;;;;;11.93;3.58;;;;;;;17.57;55.74;99210.63;5027843;28;20053;-41
2023/08/29 07:15:51;;;;;;;10.75;4.20;;;;;;;17.58;55.94;99214.94;5028634;28;20053;-41
2023/08/29 07:18:17;;;;;;;10.38;3.88;;;;;;;17.57;55.89;99211.47;5026998;28;20135;-41
2023/08/29 07:20:44;;;;;;;8.90;4.03;;;;;;;17.33;56.16;99177.22;5010919;28;20509;-40
2023/08/29 07:23:10;;;;;;;6.93;3.60;;;;;;;17.46;56.07;99192.13;5028349;28;20148;-43
2023/08/29 07:25:41;;;;;;;7.13;4.07;;;;;;;17.62;56.01;99206.75;5028358;28;20123;-41
2023/08/29 07:28:09;;;;;;;15.80;4.28;;;;;;;17.61;56.11;99212.13;5027135;28;20402;-41
2023/08/29 07:30:42;;;;;;;9.43;4.00;;;;;;;17.69;56.00;99207.16;5048746;28;20056;-41
2023/08/29 07:33:07;;;;;;;10.85;3.90;;;;;;;17.51;55.52;99171.63;5048708;28;20830;-41
2023/08/29 07:35:33;;;;;;;11.98;4.25;;;;;;;17.62;55.46;99175.22;5026864;28;20037;-43
2023/08/29 07:37:59;;;;;;;9.95;3.83;;;;;;;17.88;55.23;99193.53;5028352;28;20037;-41
2023/08/29 07:40:25;;;;;;;9.27;4.10;;;;;;;17.94;55.30;99199.19;5027619;28;20135;-43
2023/08/29 07:42:51;;;;;;;10.75;4.35;;;;;;;17.96;55.13;99204.31;5028285;28;20504;-43
2023/08/29 07:45:17;;;;;;;13.40;3.97;;;;;;;18.02;55.35;99201.25;5027878;28;20060;-41
2023/08/29 07:47:43;;;;;;;16.13;4.85;;;;;;;18.00;55.17;99164.56;5028209;28;20033;-41
2023/08/29 07:50:09;;;;;;;13.90;4.70;;;;;;;18.11;54.83;99176.91;5026537;28;20242;-41
2023/08/29 07:52:35;;;;;;;16.08;4.25;;;;;;;18.34;54.83;99210.28;5026574;28;20578;-42
2023/08/29 07:55:01;;;;;;;9.45;3.75;;;;;;;18.27;54.80;99213.47;4994724;28;20040;-41
2023/08/29 07:57:27;;;;;;;11.52;4.45;;;;;;;18.10;54.95;99194.50;5020534;28;20041;-41
2023/08/29 07:59:53;;;;;;;16.35;4.43;;;;;;;18.23;55.02;99212.84;5026238;28;20049;-40
2023/08/29 08:02:20;;;;;;;15.27;4.53;;;;;;;17.96;55.04;99178.88;5026410;28;20128;-42
2023/08/29 08:04:46;;;;;;;13.13;4.93;;;;;;;18.21;55.05;99220.03;5025911;28;20454;-42
2023/08/29 08:07:12;;;;;;;13.93;4.72;;;;;;;18.00;55.21;99179.50;5026977;28;20086;-41
2023/08/29 08:09:38;;;;;;;11.88;4.38;;;;;;;18.28;55.24;99225.66;5026574;28;20053;-41
2023/08/29 08:12:05;;;;;;;16.00;4.43;;;;;;;18.29;55.19;99225.56;5027839;28;20528;-42
2023/08/29 08:14:31;;;;;;;8.48;4.45;;;;;;;18.26;55.55;99224.97;5026127;28;20164;-40
2023/08/29 08:16:56;;;;;;;13.90;4.85;;;;;;;18.35;55.70;99214.59;5027808;28;20579;-41
2023/08/29 08:19:22;;;;;;;16.10;4.75;;;;;;;18.35;55.20;99213.75;5021367;28;20409;-40
2023/08/29 08:21:48;;;;;;;18.48;4.85;;;;;;;18.33;55.22;99218.28;5026400;28;20041;-41
2023/08/29 08:24:14;;;;;;;17.85;4.80;;;;;;;18.32;55.30;99232.41;5024500;28;20076;-42
2023/08/29 08:26:40;;;;;;;11.27;4.82;;;;;;;18.29;55.55;99215.03;5009537;28;20042;-40
2023/08/29 08:29:06;;;;;;;15.00;5.20;;;;;;;18.23;55.44;99199.69;5026144;28;20514;-41
2023/08/29 08:31:32;;;;;;;9.27;4.47;;;;;;;18.33;55.45;99228.81;5027325;28;20045;-40
2023/08/29 08:33:58;;;;;;;19.48;5.55;;;;;;;18.31;55.65;99234.19;5027501;28;20191;-44
2023/08/29 08:36:24;;;;;;;10.90;4.68;;;;;;;18.20;55.74;99234.13;5027190;28;20615;-45
2023/08/29 08:38:50;;;;;;;16.98;5.00;;;;;;;18.09;55.91;99232.28;5027591;28;20048;-41
2023/08/29 08:41:17;;;;;;;15.50;4.78;;;;;;;18.14;56.04;99232.78;5027411;28;20037;-41
2023/08/29 08:43:43;;;;;;;13.40;4.85;;;;;;;18.10;56.07;99238.41;5026317;28;20049;-41
2023/08/29 08:46:10;;;;;;;12.50;4.63;;;;;;;18.07;56.26;99230.69;5027415;28;20111;-42
2023/08/29 08:48:37;;;;;;;10.70;4.55;;;;;;;18.09;56.49;99234.06;5018935;28;20042;-40
2023/08/29 08:51:04;;;;;;;15.48;4.82;;;;;;;18.05;56.52;99236.09;5051500;28;20126;-40
2023/08/29 08:53:30;;;;;;;9.18;4.43;;;;;;;18.08;56.91;99233.22;5028626;28;20921;-41
2023/08/29 08:55:56;;;;;;;10.93;4.95;;;;;;;18.09;56.83;99227.03;5031158;28;20088;-43
2023/08/29 08:58:22;;;;;;;16.13;4.90;;;;;;;18.16;56.73;99220.34;5030973;28;20525;-41
2023/08/29 09:00:48;;;;;;;13.02;4.93;;;;;;;18.21;56.75;99228.75;5032480;28;20057;-42
2023/08/29 09:03:14;;;;;;;13.20;4.47;;;;;;;18.20;56.82;99220.97;5041837;28;20063;-43
2023/08/29 09:05:41;;;;;;;14.15;4.97;;;;;;;18.20;56.72;99224.47;5030741;28;20069;-42
2023/08/29 09:08:07;;;;;;;16.77;5.28;;;;;;;18.17;56.76;99215.94;5030870;28;20048;-41
2023/08/29 09:10:33;;;;;;;9.68;5.13;;;;;;;18.26;56.90;99217.91;5029583;28;20513;-45
2023/08/29 09:12:59;;;;;;;10.82;5.03;;;;;;;18.25;56.62;99194.31;5029466;28;20044;-42
2023/08/29 09:15:26;;;;;;;14.52;5.30;;;;;;;18.45;56.50;99226.13;5029368;28;20053;-43
2023/08/29 09:17:53;;;;;;;18.70;5.53;;;;;;;18.46;56.37;99227.81;5025273;28;20041;-40
2023/08/29 09:20:21;;;;;;;14.93;5.18;;;;;;;18.49;56.15;99224.94;5029125;28;20049;-41
2023/08/29 09:22:48;;;;;;;15.52;4.63;;;;;;;18.55;55.94;99224.50;5031185;28;20128;-42
2023/08/29 09:25:14;;;;;;;17.25;5.00;;;;;;;18.58;55.47;99219.00;5027439;28;20056;-42
2023/08/29 09:27:42;;;;;;;9.18;4.93;;;;;;;18.67;55.57;99222.78;5012896;28;20075;-42
2023/08/29 09:30:12;;;;;;;11.13;5.00;;;;;;;18.71;55.42;99231.28;5030537;28;20056;-40
2023/08/29 09:33:06;;;;;;;15.05;4.95;;;;;;;18.86;55.46;99228.31;5023351;28;20497;-41
2023/08/29 09:35:33;;;;;;;12.35;4.85;;;;;;;18.99;55.02;99225.63;5012202;28;20053;-44
2023/08/29 09:37:59;;;;;;;11.65;4.93;;;;;;;18.88;55.18;99202.72;5012866;28;20168;-41
2023/08/29 09:40:25;;;;;;;16.33;5.40;;;;;;;19.06;54.87;99211.00;5023437;28;20068;-41
2023/08/29 09:43:04;;;;;;;8.38;4.75;;;;;;;19.11;54.72;99229.09;5029432;28;20513;-43
2023/08/29 09:45:30;;;;;;;12.93;6.45;;;;;;;19.09;54.87;99228.38;5028831;28;20046;-41
2023/08/29 09:48:05;;;;;;;14.32;6.20;;;;;;;19.12;54.78;99225.50;5012339;28;20132;-42
2023/08/29 09:50:33;;;;;;;16.20;5.38;;;;;;;18.95;54.63;99198.63;5030056;28;20050;-42
2023/08/29 09:53:02;;;;;;;9.93;5.35;;;;;;;19.18;54.66;99223.25;5028655;28;20037;-41
2023/08/29 09:55:37;;;;;;;14.15;5.25;;;;;;;19.20;54.73;99229.25;4996517;28;20038;-40
2023/08/29 09:58:04;;;;;;;10.00;5.07;;;;;;;19.09;54.69;99210.78;5028890;28;20037;-41
2023/08/29 10:00:31;;;;;;;10.82;4.75;;;;;;;19.14;54.60;99218.31;5028502;28;20517;-41
2023/08/29 10:02:57;;;;;;;10.00;4.57;;;;;;;19.06;54.74;99224.16;5029604;28;20068;-42
2023/08/29 10:05:26;;;;;;;12.77;5.00;;;;;;;19.03;54.80;99229.69;5029761;28;20106;-42
2023/08/29 10:07:53;;;;;;;;;;;;;;;18.97;54.86;99219.59;5029211;28;20045;-41
2023/08/29 10:10:19;;;;;;;11.77;5.10;;;;;;;19.00;55.15;99233.38;5011768;28;19928;-43
2023/08/29 10:12:46;;;;;;;12.98;4.82;;;;;;;19.05;55.07;99233.88;5026698;28;20036;-40
2023/08/29 10:15:12;;;;;;;14.27;5.03;;;;;;;19.03;55.02;99227.06;5028135;28;20136;-42
2023/08/29 10:17:39;;;;;;;11.43;5.20;;;;;;;19.19;55.12;99227.56;5024821;28;20057;-40
2023/08/29 10:20:09;;;;;;;13.02;4.85;;;;;;;19.18;55.14;99227.66;5012976;28;20513;-40
2023/08/29 10:22:37;;;;;;;9.32;4.95;;;;;;;18.88;55.31;99192.19;5011645;28;20060;-42
2023/08/29 10:25:04;;;;;;;9.63;4.55;;;;;;;18.92;55.47;99227.03;5028252;28;20119;-42
2023/08/29 10:27:32;;;;;;;18.40;4.75;;;;;;;18.96;55.57;99231.94;5024893;28;20052;-41
2023/08/29 10:29:58;;;;;;;8.98;4.13;;;;;;;18.89;55.84;99237.81;5011321;28;20555;-40
2023/08/29 10:32:25;;;;;;;14.50;4.68;;;;;;;18.61;56.12;99215.31;5029506;28;20065;-43
2023/08/29 10:34:51;;;;;;;12.20;4.90;;;;;;;18.63;56.39;99228.38;5035591;28;20041;-43
2023/08/29 10:37:18;;;;;;;13.45;4.70;;;;;;;18.70;56.30;99240.13;5029075;28;20578;-46
2023/08/29 10:39:44;;;;;;;10.85;4.70;;;;;;;18.74;56.16;99245.03;5031543;28;20072;-42
2023/08/29 10:42:13;;;;;;;12.50;4.57;;;;;;;18.78;56.39;99256.22;5011454;28;20065;-42
2023/08/29 10:44:42;;;;;;;11.20;4.90;;;;;;;18.76;56.11;99255.47;5050791;28;20410;-41
2023/08/29 10:47:26;;;;;;;11.35;4.28;;;;;;;18.85;55.98;99252.97;5011207;28;20037;-41
2023/08/29 10:50:03;;;;;;;10.93;4.75;;;;;;;18.91;55.82;99244.63;5022152;28;20099;-44
2023/08/29 10:52:40;;;;;;;13.75;4.57;;;;;;;18.96;56.09;99245.13;5011582;28;20067;-41
2023/08/29 10:55:21;;;;;;;12.48;4.80;;;;;;;18.98;56.04;99251.13;5017923;28;20045;-41
2023/08/29 10:57:47;;;;;;;6.82;4.22;;;;;;;18.87;56.12;99260.78;5026424;28;20044;-42
2023/08/29 11:00:18;;;;;;;12.50;4.43;;;;;;;18.72;56.19;99257.50;5023479;28;20120;-41
2023/08/29 11:02:44;;;;;;;14.52;4.93;;;;;;;18.67;56.51;99261.44;5023737;28;20583;-40
2023/08/29 11:05:12;;;;;;;10.18;4.72;;;;;;;18.61;56.78;99252.19;5025435;28;20045;-41
2023/08/29 11:07:41;;;;;;;8.30;4.50;;;;;;;18.50;56.60;99231.88;5025453;28;20095;-42
2023/08/29 11:10:14;;;;;;;8.50;4.40;;;;;;;18.55;56.77;99250.00;5027092;28;20053;-41
2023/08/29 11:13:12;;;;;;;9.10;3.95;;;;;;;18.58;56.64;99250.59;5029331;28;20068;-41
2023/08/29 11:15:50;;;;;;;14.05;4.53;;;;;;;18.53;56.77;99244.81;5024229;28;20133;-43
2023/08/29 11:18:21;;;;;;;15.07;4.70;;;;;;;18.55;56.72;99242.94;5023250;28;20568;-43
2023/08/29 11:20:47;;;;;;;12.48;4.88;;;;;;;18.42;56.74;99223.69;5024850;28;20182;-40
2023/08/29 11:23:13;;;;;;;11.80;5.10;;;;;;;18.57;56.83;99238.41;5030614;28;20051;-40
2023/08/29 11:25:39;;;;;;;8.93;4.88;;;;;;;18.63;56.82;99243.19;5031370;28;20045;-42
2023/08/29 11:28:06;;;;;;;18.13;9.25;;;;;;;18.52;56.54;99200.19;5028539;28;20521;-41
2023/08/29 11:30:33;;;;;;;9.43;4.88;;;;;;;18.97;56.17;99248.59;5026860;28;20049;-41
2023/08/29 11:32:58;;;;;;;11.68;5.03;;;;;;;18.85;56.13;99225.78;5008269;28;20126;-41
2023/08/29 11:35:27;;;;;;;8.90;5.20;;;;;;;19.01;56.12;99250.88;5026099;28;20076;-41
2023/08/29 11:37:53;;;;;;;7.00;4.00;;;;;;;18.92;56.02;99261.28;5026920;28;20045;-43
2023/08/29 11:40:20;;;;;;;9.18;4.57;;;;;;;18.74;56.42;99260.84;5026512;28;20559;-42
2023/08/29 11:42:45;;;;;;;12.32;4.97;;;;;;;18.65;56.61;99258.91;5027036;28;20045;-44
2023/08/29 11:45:14;;;;;;;10.63;4.78;;;;;;;18.54;56.75;99256.22;5026616;28;20540;-41
2023/08/29 11:47:41;;;;;;;12.05;4.72;;;;;;;18.49;56.80;99261.78;5019322;28;20034;-41
2023/08/29 11:50:07;;;;;;;9.77;5.05;;;;;;;18.50;57.02;99252.94;5026800;28;20091;-41
2023/08/29 11:52:33;;;;;;;13.80;5.72;;;;;;;18.44;57.19;99252.56;5009379;28;20030;-41
2023/08/29 11:55:04;;;;;;;10.80;5.30;;;;;;;18.39;57.18;99249.41;5026872;28;20052;-41
2023/08/29 11:57:30;;;;;;;10.93;5.35;;;;;;;18.41;57.26;99247.53;5033463;28;20113;-41
2023/08/29 11:59:57;;;;;;;11.95;5.45;;;;;;;18.46;57.19;99251.50;5028066;28;20064;-41
2023/08/29 12:02:23;;;;;;;9.00;5.03;;;;;;;18.49;57.14;99256.53;5026335;28;20072;-41
2023/08/29 12:04:56;;;;;;;11.63;5.05;;;;;;;18.48;57.37;99260.09;5025541;28;20136;-40
2023/08/29 12:07:23;;;;;;;9.82;5.57;;;;;;;18.47;57.26;99260.25;5008696;28;20517;-40
2023/08/29 12:09:52;;;;;;;10.80;4.63;;;;;;;18.41;57.64;99253.63;5024811;28;20132;-43
2023/08/29 12:12:28;;;;;;;17.40;5.30;;;;;;;18.36;57.76;99254.91;5049898;28;20103;-42
2023/08/29 12:14:54;;;;;;;10.63;5.15;;;;;;;18.32;58.20;99241.13;5007021;28;20056;-42
2023/08/29 12:17:20;;;;;;;12.82;6.20;;;;;;;18.34;58.47;99244.50;5024601;28;20376;-47
2023/08/29 12:19:47;;;;;;;11.57;5.13;;;;;;;18.36;58.43;99250.50;5017017;28;20037;-42
2023/08/29 12:22:19;;;;;;;10.48;5.25;;;;;;;18.42;58.09;99255.28;5027398;28;20050;-43
2023/08/29 12:24:54;;;;;;;13.30;5.55;;;;;;;18.18;59.38;99231.63;5026287;28;20052;-44
2023/08/29 12:27:21;;;;;;;13.77;5.82;;;;;;;18.14;59.86;99234.56;5012571;28;20424;-43
2023/08/29 12:29:47;;;;;;;9.85;5.57;;;;;;;18.34;59.88;99259.44;5040470;28;20053;-42
2023/08/29 12:32:16;;;;;;;10.75;5.15;;;;;;;18.26;60.46;99257.38;5032890;28;20049;-41
2023/08/29 12:34:45;;;;;;;13.73;5.20;;;;;;;18.18;60.99;99254.44;5031785;28;20048;-41
2023/08/29 12:37:12;;;;;;;14.48;5.63;;;;;;;18.06;61.42;99242.16;5030060;28;20072;-41
2023/08/29 12:39:39;;;;;;;14.77;5.68;;;;;;;18.03;61.66;99237.13;5024062;28;20527;-42
2023/08/29 12:42:05;;;;;;;10.73;5.10;;;;;;;18.23;61.49;99247.06;5031609;28;20049;-42
2023/08/29 12:44:31;;;;;;;10.70;5.10;;;;;;;18.21;61.58;99248.97;5027793;28;20045;-41
2023/08/29 12:46:57;;;;;;;9.88;5.30;;;;;;;18.09;62.23;99249.84;5031670;28;20037;-41
2023/08/29 12:49:23;;;;;;;9.40;5.30;;;;;;;17.82;62.58;99225.53;5031113;28;20041;-40
2023/08/29 12:51:50;;;;;;;15.70;5.60;;;;;;;17.89;62.94;99259.19;5009441;28;20048;-41
2023/08/29 12:54:16;;;;;;;13.48;5.65;;;;;;;17.84;63.21;99260.47;5028642;28;20041;-41
2023/08/29 12:56:43;;;;;;;14.00;6.07;;;;;;;17.54;63.32;99214.28;5013759;28;20041;-40
2023/08/29 12:59:10;;;;;;;11.38;5.75;;;;;;;17.83;63.70;99256.97;5028442;28;20084;-42
2023/08/29 13:01:35;;;;;;;12.00;6.00;;;;;;;17.89;63.62;99259.19;5029444;28;20053;-41
2023/08/29 13:04:02;;;;;;;13.68;5.32;;;;;;;17.91;63.35;99248.53;5029297;28;20041;-41
2023/08/29 13:06:29;;;;;;;13.98;6.38;;;;;;;17.90;63.57;99252.94;4997011;28;20039;-41
2023/08/29 13:08:55;;;;;;;12.65;6.28;;;;;;;17.87;64.02;99255.81;5023472;28;20132;-41
2023/08/29 13:11:21;;;;;;;16.77;6.22;;;;;;;17.86;64.51;99266.44;5029630;28;20041;-41
2023/08/29 13:13:47;;;;;;;12.73;6.38;;;;;;;17.79;65.29;99255.53;5030788;28;20053;-41
2023/08/29 13:16:17;;;;;;;11.30;5.90;;;;;;;17.64;65.86;99244.28;5030846;28;20059;-41
2023/08/29 13:18:43;;;;;;;11.82;5.65;;;;;;;17.75;65.96;99270.66;5029298;28;20115;-42
2023/08/29 13:21:09;;;;;;;11.15;6.57;;;;;;;17.67;66.97;99270.38;5029625;28;20041;-43
2023/08/29 13:23:36;;;;;;;14.48;6.10;;;;;;;17.77;66.75;99271.41;5024957;28;20432;-42
2023/08/29 13:26:03;;;;;;;10.68;6.03;;;;;;;17.77;66.90;99268.78;5013244;28;20136;-43
2023/08/29 13:28:29;;;;;;;12.95;6.45;;;;;;;17.65;67.60;99272.25;5011890;28;20041;-40
2023/08/29 13:30:58;;;;;;;11.52;6.75;;;;;;;17.54;68.42;99268.66;5024161;28;20046;-44
2023/08/29 13:33:24;;;;;;;;;;;;;;;17.46;68.88;99263.09;5029886;28;20045;-41
2023/08/29 13:35:50;;;;;;;14.90;6.70;;;;;;;17.38;69.28;99257.53;5029178;28;20019;-44
2023/08/29 13:38:16;;;;;;;16.95;6.82;;;;;;;17.56;69.12;99258.88;5028535;28;20441;-43
2023/08/29 13:40:42;;;;;;;16.60;7.22;;;;;;;17.41;69.15;99228.41;5032901;28;20041;-45
2023/08/29 13:43:08;;;;;;;13.90;7.05;;;;;;;17.29;70.07;99222.22;5030215;28;20293;-42
2023/08/29 13:45:35;;;;;;;13.05;7.10;;;;;;;17.41;71.40;99258.16;5029150;28;20779;-44
2023/08/29 13:48:01;;;;;;;12.35;7.55;;;;;;;17.39;72.02;99267.94;5028003;28;20056;-42
2023/08/29 13:50:26;;;;;;;14.40;7.53;;;;;;;17.32;72.04;99235.16;5028011;28;20122;-40
2023/08/29 13:52:52;;;;;;;13.85;7.15;;;;;;;17.50;72.43;99268.03;5029149;28;20077;-43
2023/08/29 13:55:18;;;;;;;19.70;7.70;;;;;;;17.44;72.81;99280.75;5028629;28;20041;-41
2023/08/29 13:57:44;;;;;;;15.60;7.70;;;;;;;17.51;72.78;99272.34;5011114;28;20044;-41
2023/08/29 14:00:11;;;;;;;17.13;7.18;;;;;;;17.55;72.36;99271.19;5028929;28;20037;-40
2023/08/29 14:02:40;;;;;;;16.67;7.65;;;;;;;17.55;72.40;99272.97;5022221;28;20132;-42
2023/08/29 14:05:06;;;;;;;13.45;7.47;;;;;;;17.54;72.82;99268.66;5028734;28;20124;-41
2023/08/29 14:07:32;;;;;;;13.98;7.10;;;;;;;17.39;73.51;99262.66;5026504;28;20037;-42
2023/08/29 14:09:58;;;;;;;20.05;8.32;;;;;;;17.32;74.02;99266.69;5028850;28;20110;-44
2023/08/29 14:12:24;;;;;;;17.17;8.25;;;;;;;17.33;74.08;99252.56;5030086;28;20041;-40
2023/08/29 14:14:50;;;;;;;17.63;7.82;;;;;;;17.35;74.11;99248.91;5028140;28;20437;-45
2023/08/29 14:17:16;;;;;;;14.80;7.55;;;;;;;17.39;74.35;99241.66;5028132;28;20053;-41
2023/08/29 14:19:42;;;;;;;12.13;7.72;;;;;;;17.32;74.70;99243.03;5028631;28;20041;-42
2023/08/29 14:22:08;;;;;;;13.52;8.00;;;;;;;17.38;74.74;99241.78;5028713;28;20051;-41
2023/08/29 14:24:34;;;;;;;11.68;7.22;;;;;;;17.48;74.58;99245.44;5028329;28;20033;-42
2023/08/29 14:27:00;;;;;;;21.33;8.63;;;;;;;17.52;74.17;99242.50;5024424;28;20421;-42
2023/08/29 14:29:30;;;;;;;12.43;7.40;;;;;;;17.43;75.01;99260.69;5028099;28;20155;-44
2023/08/29 14:31:57;;;;;;;18.55;8.35;;;;;;;17.32;75.36;99254.34;5028414;28;20068;-42
2023/08/29 14:34:23;;;;;;;15.30;8.18;;;;;;;17.30;75.45;99245.75;5027424;28;20531;-44
2023/08/29 14:36:49;;;;;;;14.30;7.50;;;;;;;17.14;75.81;99225.88;5022215;28;20037;-41
2023/08/29 14:39:14;;;;;;;16.17;8.35;;;;;;;17.34;75.64;99252.47;5022915;28;20099;-41
2023/08/29 14:41:43;;;;;;;12.38;7.82;;;;;;;17.26;76.32;99260.06;5028332;28;20037;-41